Svitzer Leixoes — CSXW6 — position and weather

sailwx.info

Track history (hours):
 
Tides and Currents Weather Stations Pressure Air Temp Water Temp Dewpoint Dewpoint Depression Visibility Wind Speed Wind Dir Waves Ship Positions

Svitzer Leixoes

Last reported at 2014-Jul-29 18:33 UTC. Time now 2014-Jul-29 18:54 UTC.
Position N 38°42' W 009°10'.

Length 28 m; draft 3.9 m.

Type: Towing. MMSI: 263622000.

Date/timePositionNaut miles runAvg speedWind from/ knotsBaromVisibWave heightAir tempDewpointWater temp
2014-Jul-29 18:33N 38°42' W 009°10'0 0.0
2014-Jul-29 17:33N 38°42' W 009°10'0 0.0
2014-Jul-29 16:33N 38°42' W 009°10'0 0.0
2014-Jul-29 15:33N 38°42' W 009°10'0 0.0
2014-Jul-29 14:33N 38°42' W 009°10'0 0.2
2014-Jul-29 13:33N 38°42' W 009°10'0 0.2
2014-Jul-29 12:34N 38°42' W 009°10'0 0.0
2014-Jul-29 11:33N 38°42' W 009°10'0 0.0
2014-Jul-29 10:34N 38°42' W 009°10'3 2.6
2014-Jul-29 09:33N 38°41' W 009°13'3 2.7
2014-Jul-29 08:33N 38°42' W 009°09'0 0.1
2014-Jul-29 07:33N 38°42' W 009°10'0 0.0
2014-Jul-29 06:33N 38°42' W 009°10'1 1.4
2014-Jul-29 05:33N 38°41' W 009°11'1 1.4
2014-Jul-29 04:33N 38°42' W 009°10'0 0.0
2014-Jul-29 03:33N 38°42' W 009°10'0 0.0
2014-Jul-29 02:33N 38°42' W 009°10'0 0.0
2014-Jul-29 01:33N 38°42' W 009°10'0 0.0
2014-Jul-29 00:33N 38°42' W 009°10'0 0.0
2014-Jul-28 23:33N 38°42' W 009°10'0 0.0
2014-Jul-28 22:33N 38°42' W 009°10'0 0.0
2014-Jul-28 21:33N 38°42' W 009°10'0 0.0
2014-Jul-28 20:33N 38°42' W 009°10'2 1.7
2014-Jul-28 19:33N 38°41' W 009°11'2 1.7
2014-Jul-28 18:33N 38°42' W 009°10'0 0.0
2014-Jul-28 17:33N 38°42' W 009°10'0 0.0
2014-Jul-28 16:33N 38°42' W 009°10'0 0.0
2014-Jul-28 15:33N 38°42' W 009°10'0 0.0
2014-Jul-28 14:33N 38°42' W 009°10'0 0.0
2014-Jul-28 13:33N 38°42' W 009°10'1 1.4
2014-Jul-28 12:33N 38°41' W 009°11'1 1.4
2014-Jul-28 11:33N 38°42' W 009°10'2 1.6
2014-Jul-28 10:33N 38°42' W 009°08'2 1.7
2014-Jul-28 09:33N 38°42' W 009°10'2 1.9
2014-Jul-28 08:33N 38°43' W 009°07'2 1.9
2014-Jul-28 07:33N 38°42' W 009°10'0 0.4
2014-Jul-28 06:33N 38°42' W 009°10'0 0.0
2014-Jul-28 05:33N 38°42' W 009°10'0 0.0
2014-Jul-28 04:33N 38°42' W 009°10'0 0.0
2014-Jul-28 03:33N 38°42' W 009°10'0 0.0
2014-Jul-28 02:33N 38°42' W 009°10'0 0.0
2014-Jul-28 01:33N 38°42' W 009°10'0 0.0
2014-Jul-28 00:33N 38°42' W 009°10'0 0.0
2014-Jul-27 23:34N 38°42' W 009°10'0 0.0
2014-Jul-27 22:33N 38°42' W 009°10'0 0.0
2014-Jul-27 21:33N 38°42' W 009°10'0 0.0
2014-Jul-27 20:33N 38°42' W 009°10'0 0.0
2014-Jul-27 19:33N 38°42' W 009°10'0 0.0
2014-Jul-27 18:33N 38°42' W 009°10'0 0.0
2014-Jul-27 17:33N 38°42' W 009°10'0 0.0
2014-Jul-27 16:33N 38°42' W 009°10'0 0.0
2014-Jul-27 15:33N 38°42' W 009°10'0 0.0
2014-Jul-27 14:33N 38°42' W 009°10'0 0.0
2014-Jul-27 13:33N 38°42' W 009°10'0 0.0
2014-Jul-27 12:33N 38°42' W 009°10'0 0.0
2014-Jul-27 11:33N 38°42' W 009°10'0 0.0
2014-Jul-27 10:34N 38°42' W 009°10'0 0.0
2014-Jul-27 09:33N 38°42' W 009°10'0 0.0
2014-Jul-27 08:33N 38°42' W 009°10'0 0.0
2014-Jul-27 07:33N 38°42' W 009°10'0 0.0
2014-Jul-27 06:33N 38°42' W 009°10'0 0.0
2014-Jul-27 05:33N 38°42' W 009°10'0 0.0
2014-Jul-27 04:33N 38°42' W 009°10'0 0.0
2014-Jul-27 03:33N 38°42' W 009°10'0 0.0
2014-Jul-27 02:33N 38°42' W 009°10'0 0.0
2014-Jul-27 01:33N 38°42' W 009°10'0 0.0
2014-Jul-27 00:33N 38°42' W 009°10'0 0.0
2014-Jul-26 23:33N 38°42' W 009°10'0 0.0
2014-Jul-26 22:33N 38°42' W 009°10'0 0.0
2014-Jul-26 21:33N 38°42' W 009°10'0 0.0
2014-Jul-26 20:33N 38°42' W 009°10'0 0.0
2014-Jul-26 19:33N 38°42' W 009°10'0 0.1
2014-Jul-26 18:33N 38°42' W 009°10'0 0.1
2014-Jul-26 17:33N 38°42' W 009°10'0 0.4
2014-Jul-26 16:33N 38°42' W 009°10'0 0.4
2014-Jul-26 15:33N 38°42' W 009°10'0 0.0
2014-Jul-26 14:33N 38°42' W 009°10'2 1.6
2014-Jul-26 13:33N 38°42' W 009°08'1 1.4
2014-Jul-26 12:33N 38°43' W 009°07'3 3.3
2014-Jul-26 11:33N 38°42' W 009°10'1 0.7
2014-Jul-26 10:33N 38°42' W 009°10'0 0.1
2014-Jul-26 09:33N 38°42' W 009°10'0 0.0
2014-Jul-26 08:33N 38°42' W 009°10'0 0.0
2014-Jul-26 07:33N 38°42' W 009°10'0 0.0
2014-Jul-26 06:34N 38°42' W 009°10'0 0.0
2014-Jul-26 05:33N 38°42' W 009°10'0 0.0
2014-Jul-26 04:33N 38°42' W 009°10'0 0.0
2014-Jul-26 03:33N 38°42' W 009°10'0 0.0
2014-Jul-26 02:33N 38°42' W 009°10'0 0.0
2014-Jul-26 01:33N 38°42' W 009°10'2 1.9
2014-Jul-26 00:33N 38°41' W 009°08'2 1.5
2014-Jul-25 23:33N 38°41' W 009°06'3 3.3
2014-Jul-25 22:33N 38°42' W 009°10'0 0.0
2014-Jul-25 21:33N 38°42' W 009°10'4 4.0
2014-Jul-25 20:33N 38°41' W 009°14'3 3.0
2014-Jul-25 19:33N 38°42' W 009°11'1 1.0
2014-Jul-25 18:33N 38°42' W 009°10'0 0.0
2014-Jul-25 17:33N 38°42' W 009°10'0 0.0
2014-Jul-25 16:33N 38°42' W 009°10'0 0.0
2014-Jul-25 15:33N 38°42' W 009°10'5 4.8
2014-Jul-25 14:33N 38°41' W 009°04'3 2.7
2014-Jul-25 13:33N 38°41' W 009°07'3 3.1
2014-Jul-25 12:33N 38°41' W 009°11'5 4.5
2014-Jul-25 11:34N 38°43' W 009°06'3 2.5
2014-Jul-25 10:33N 38°42' W 009°09'1 0.5
2014-Jul-25 09:33N 38°42' W 009°10'0 0.0
2014-Jul-25 08:33N 38°42' W 009°10'2 2.2
2014-Jul-25 07:33N 38°41' W 009°12'2 2.2
2014-Jul-25 06:33N 38°42' W 009°10'0 0.0
2014-Jul-25 05:33N 38°42' W 009°10'0 0.0
2014-Jul-25 04:33N 38°42' W 009°10'0 0.0
2014-Jul-25 03:33N 38°42' W 009°10'0 0.0
2014-Jul-25 02:34N 38°42' W 009°10'4 3.8
2014-Jul-25 01:33N 38°41' W 009°14'2 2.4
2014-Jul-25 00:33N 38°42' W 009°11'1 1.4
2014-Jul-24 23:33N 38°42' W 009°10'0 0.0
2014-Jul-24 22:33N 38°42' W 009°10'0 0.0
2014-Jul-24 21:33N 38°42' W 009°10'1 1.2
2014-Jul-24 20:33N 38°41' W 009°08'1 1.2
2014-Jul-24 19:33N 38°42' W 009°10'2 2.0
2014-Jul-24 18:33N 38°41' W 009°12'2 2.0
2014-Jul-24 17:33N 38°42' W 009°10'2 1.5
2014-Jul-24 16:34N 38°42' W 009°08'2 1.2
2014-Jul-24 14:32N 38°42' W 009°11'1 1.0
2014-Jul-24 13:33N 38°41' W 009°11'1 1.2
2014-Jul-24 12:32N 38°42' W 009°10'1 0.6
2014-Jul-24 11:29N 38°42' W 009°10'1 1.5
2014-Jul-24 10:33N 38°42' W 009°08'1 0.7
2014-Jul-24 08:33N 38°42' W 009°10'0 0.0
2014-Jul-24 07:33N 38°42' W 009°10'0 0.0
2014-Jul-24 06:25N 38°42' W 009°10'1 1.3
2014-Jul-24 05:33N 38°42' W 009°11'1 0.9
2014-Jul-24 04:16N 38°42' W 009°10'0 0.0
2014-Jul-24 03:21N 38°42' W 009°10'0 0.0
2014-Jul-24 01:33N 38°42' W 009°10'0 0.0
2014-Jul-24 00:32N 38°42' W 009°10'1 1.3
2014-Jul-23 23:34N 38°41' W 009°08'1 1.5
2014-Jul-23 22:34N 38°41' W 009°07'3 2.7
2014-Jul-23 21:32N 38°42' W 009°10'0 0.0
2014-Jul-23 20:33N 38°42' W 009°10'0 0.0
2014-Jul-23 19:33N 38°42' W 009°10'0 0.0
2014-Jul-23 18:31N 38°42' W 009°10'0 0.0
2014-Jul-23 17:31N 38°42' W 009°10'0 0.3
2014-Jul-23 16:33N 38°42' W 009°10'0 0.4
2014-Jul-23 15:33N 38°42' W 009°10'1 0.6
2014-Jul-23 14:28N 38°42' W 009°10'0 0.0
2014-Jul-23 13:25N 38°42' W 009°10'1 0.6
2014-Jul-23 12:32N 38°42' W 009°09'1 0.3
2014-Jul-23 10:25N 38°42' W 009°10'0 0.0
2014-Jul-23 09:34N 38°42' W 009°10'0 0.0
2014-Jul-23 08:33N 38°42' W 009°10'0 0.0
2014-Jul-23 07:31N 38°42' W 009°10'0 0.0
2014-Jul-23 06:33N 38°42' W 009°10'0 0.0
2014-Jul-23 05:32N 38°42' W 009°10'0 0.0
2014-Jul-23 04:34N 38°42' W 009°10'0 0.0
2014-Jul-23 03:33N 38°42' W 009°10'0 0.0
2014-Jul-23 02:32N 38°42' W 009°10'0 0.0
2014-Jul-23 01:34N 38°42' W 009°10'1 1.2
2014-Jul-23 00:34N 38°41' W 009°08'4 3.5
2014-Jul-22 23:33N 38°41' W 009°04'5 4.6
2014-Jul-22 22:34N 38°42' W 009°10'0 0.0
2014-Jul-22 21:31N 38°42' W 009°10'0 0.0
2014-Jul-22 20:31N 38°42' W 009°10'0 0.0
2014-Jul-22 19:33N 38°42' W 009°10'0 0.0
2014-Jul-22 18:27N 38°42' W 009°10'0 0.0
2014-Jul-22 17:11N 38°42' W 009°10'0 0.0
2014-Jul-22 13:29N 38°42' W 009°10'0 0.0
2014-Jul-22 12:33N 38°42' W 009°10'0 0.0
2014-Jul-22 11:33N 38°42' W 009°10'0 0.0
2014-Jul-22 10:28N 38°42' W 009°10'0 0.0
2014-Jul-22 09:33N 38°42' W 009°10'0 0.0
2014-Jul-22 08:33N 38°42' W 009°10'0 0.0
2014-Jul-22 07:33N 38°42' W 009°10'0 0.4
2014-Jul-22 06:33N 38°42' W 009°10'0 0.4
2014-Jul-22 05:33N 38°42' W 009°10'0 0.0
2014-Jul-22 04:33N 38°42' W 009°10'0 0.0
2014-Jul-22 03:33N 38°42' W 009°10'0 0.0
2014-Jul-22 02:34N 38°42' W 009°10'0 0.0
2014-Jul-22 01:34N 38°42' W 009°10'0 0.0
2014-Jul-22 00:33N 38°42' W 009°10'0 0.0
2014-Jul-21 23:33N 38°42' W 009°10'0 0.0
2014-Jul-21 22:33N 38°42' W 009°10'0 0.0
2014-Jul-21 21:32N 38°42' W 009°10'3 3.1
2014-Jul-21 20:33N 38°41' W 009°13'1 3.0
2014-Jul-21 20:15N 38°41' W 009°14'0 0.1
2014-Jul-21 19:33N 38°41' W 009°14'0 0.1
2014-Jul-21 17:31N 38°41' W 009°14'0 0.2
2014-Jul-21 16:32N 38°41' W 009°14'3 2.5
2014-Jul-21 15:14N 38°42' W 009°10'1 0.9
2014-Jul-21 14:32N 38°42' W 009°10'0 0.0
2014-Jul-21 13:33N 38°42' W 009°10'0 0.0
2014-Jul-21 12:33N 38°42' W 009°10'0 0.0
2014-Jul-21 11:34N 38°42' W 009°10'3 3.3
2014-Jul-21 10:33N 38°41' W 009°06'0 0.1
2014-Jul-21 09:34N 38°41' W 009°06'3 2.9
2014-Jul-21 08:29N 38°42' W 009°10'0 0.4
2014-Jul-21 07:34N 38°42' W 009°10'0 0.1
2014-Jul-21 06:34N 38°42' W 009°10'0 0.4
2014-Jul-21 05:33N 38°42' W 009°10'0 0.0
2014-Jul-21 04:34N 38°42' W 009°10'0 0.0
2014-Jul-21 03:33N 38°42' W 009°10'0 0.0
2014-Jul-21 02:33N 38°42' W 009°10'0 0.0
2014-Jul-21 01:33N 38°42' W 009°10'0 0.0
2014-Jul-21 00:33N 38°42' W 009°10'0 0.1
2014-Jul-20 23:32N 38°42' W 009°09'0 0.3
2014-Jul-20 22:34N 38°42' W 009°09'0 0.2
2014-Jul-20 21:32N 38°42' W 009°10'0 0.0
2014-Jul-20 20:33N 38°42' W 009°10'0 0.0
2014-Jul-20 19:33N 38°42' W 009°10'0 0.0
2014-Jul-20 18:34N 38°42' W 009°10'0 0.0
2014-Jul-20 17:33N 38°42' W 009°10'0 0.0
2014-Jul-20 16:32N 38°42' W 009°10'0 0.0
2014-Jul-20 15:30N 38°42' W 009°10'0 0.0
2014-Jul-20 14:33N 38°42' W 009°10'0 0.0
2014-Jul-20 13:34N 38°42' W 009°10'0 0.0
2014-Jul-20 12:33N 38°42' W 009°10'0 0.0
2014-Jul-20 11:34N 38°42' W 009°10'0 0.3
2014-Jul-20 10:34N 38°42' W 009°09'2 1.6
2014-Jul-20 09:33N 38°41' W 009°11'1 0.5
2014-Jul-20 08:33N 38°41' W 009°11'2 1.9
2014-Jul-20 07:34N 38°42' W 009°10'0 0.0
2014-Jul-20 06:29N 38°42' W 009°10'0 0.0
2014-Jul-20 05:33N 38°42' W 009°10'0 0.0
2014-Jul-20 04:28N 38°42' W 009°10'0 0.0
2014-Jul-20 03:33N 38°42' W 009°10'0 0.0
2014-Jul-20 02:34N 38°42' W 009°10'0 0.0
2014-Jul-20 01:32N 38°42' W 009°10'0 0.0
2014-Jul-20 00:34N 38°42' W 009°10'0 0.0
2014-Jul-19 23:33N 38°42' W 009°10'0 0.0
2014-Jul-19 22:33N 38°42' W 009°10'0 0.0
2014-Jul-19 21:33N 38°42' W 009°10'0 0.0
2014-Jul-19 20:33N 38°42' W 009°10'0 0.0
2014-Jul-19 19:33N 38°42' W 009°10'0 0.0
2014-Jul-19 18:33N 38°42' W 009°10'  
Track history (hours):
 
Tides and Currents Weather Stations Pressure Air Temp Water Temp Dewpoint Dewpoint Depression Visibility Wind Speed Wind Dir Waves Ship Positions

Svitzer Leixoes

Last reported at 2014-Jul-29 18:33 UTC. Time now 2014-Jul-29 18:54 UTC.
Position N 38°42' W 009°10'.

Length 28 m; draft 3.9 m.

Type: Towing. MMSI: 263622000.

Date/timePositionNaut miles runAvg speedWind from/ knotsBaromVisibWave heightAir tempDewpointWater temp
2014-Jul-29 18:33N 38°42' W 009°10'0 0.0
2014-Jul-29 17:33N 38°42' W 009°10'0 0.0
2014-Jul-29 16:33N 38°42' W 009°10'0 0.0
2014-Jul-29 15:33N 38°42' W 009°10'0 0.0
2014-Jul-29 14:33N 38°42' W 009°10'0 0.2
2014-Jul-29 13:33N 38°42' W 009°10'0 0.2
2014-Jul-29 12:34N 38°42' W 009°10'0 0.0
2014-Jul-29 11:33N 38°42' W 009°10'0 0.0
2014-Jul-29 10:34N 38°42' W 009°10'3 2.6
2014-Jul-29 09:33N 38°41' W 009°13'3 2.7
2014-Jul-29 08:33N 38°42' W 009°09'0 0.1
2014-Jul-29 07:33N 38°42' W 009°10'0 0.0
2014-Jul-29 06:33N 38°42' W 009°10'1 1.4
2014-Jul-29 05:33N 38°41' W 009°11'1 1.4
2014-Jul-29 04:33N 38°42' W 009°10'0 0.0
2014-Jul-29 03:33N 38°42' W 009°10'0 0.0
2014-Jul-29 02:33N 38°42' W 009°10'0 0.0
2014-Jul-29 01:33N 38°42' W 009°10'0 0.0
2014-Jul-29 00:33N 38°42' W 009°10'0 0.0
2014-Jul-28 23:33N 38°42' W 009°10'0 0.0
2014-Jul-28 22:33N 38°42' W 009°10'0 0.0
2014-Jul-28 21:33N 38°42' W 009°10'0 0.0
2014-Jul-28 20:33N 38°42' W 009°10'2 1.7
2014-Jul-28 19:33N 38°41' W 009°11'2 1.7
2014-Jul-28 18:33N 38°42' W 009°10'0 0.0
2014-Jul-28 17:33N 38°42' W 009°10'0 0.0
2014-Jul-28 16:33N 38°42' W 009°10'0 0.0
2014-Jul-28 15:33N 38°42' W 009°10'0 0.0
2014-Jul-28 14:33N 38°42' W 009°10'0 0.0
2014-Jul-28 13:33N 38°42' W 009°10'1 1.4
2014-Jul-28 12:33N 38°41' W 009°11'1 1.4
2014-Jul-28 11:33N 38°42' W 009°10'2 1.6
2014-Jul-28 10:33N 38°42' W 009°08'2 1.7
2014-Jul-28 09:33N 38°42' W 009°10'2 1.9
2014-Jul-28 08:33N 38°43' W 009°07'2 1.9
2014-Jul-28 07:33N 38°42' W 009°10'0 0.4
2014-Jul-28 06:33N 38°42' W 009°10'0 0.0
2014-Jul-28 05:33N 38°42' W 009°10'0 0.0
2014-Jul-28 04:33N 38°42' W 009°10'0 0.0
2014-Jul-28 03:33N 38°42' W 009°10'0 0.0
2014-Jul-28 02:33N 38°42' W 009°10'0 0.0
2014-Jul-28 01:33N 38°42' W 009°10'0 0.0
2014-Jul-28 00:33N 38°42' W 009°10'0 0.0
2014-Jul-27 23:34N 38°42' W 009°10'0 0.0
2014-Jul-27 22:33N 38°42' W 009°10'0 0.0
2014-Jul-27 21:33N 38°42' W 009°10'0 0.0
2014-Jul-27 20:33N 38°42' W 009°10'0 0.0
2014-Jul-27 19:33N 38°42' W 009°10'0 0.0
2014-Jul-27 18:33N 38°42' W 009°10'0 0.0
2014-Jul-27 17:33N 38°42' W 009°10'0 0.0
2014-Jul-27 16:33N 38°42' W 009°10'0 0.0
2014-Jul-27 15:33N 38°42' W 009°10'0 0.0
2014-Jul-27 14:33N 38°42' W 009°10'0 0.0
2014-Jul-27 13:33N 38°42' W 009°10'0 0.0
2014-Jul-27 12:33N 38°42' W 009°10'0 0.0
2014-Jul-27 11:33N 38°42' W 009°10'0 0.0
2014-Jul-27 10:34N 38°42' W 009°10'0 0.0
2014-Jul-27 09:33N 38°42' W 009°10'0 0.0
2014-Jul-27 08:33N 38°42' W 009°10'0 0.0
2014-Jul-27 07:33N 38°42' W 009°10'0 0.0
2014-Jul-27 06:33N 38°42' W 009°10'0 0.0
2014-Jul-27 05:33N 38°42' W 009°10'0 0.0
2014-Jul-27 04:33N 38°42' W 009°10'0 0.0
2014-Jul-27 03:33N 38°42' W 009°10'0 0.0
2014-Jul-27 02:33N 38°42' W 009°10'0 0.0
2014-Jul-27 01:33N 38°42' W 009°10'0 0.0
2014-Jul-27 00:33N 38°42' W 009°10'0 0.0
2014-Jul-26 23:33N 38°42' W 009°10'0 0.0
2014-Jul-26 22:33N 38°42' W 009°10'0 0.0
2014-Jul-26 21:33N 38°42' W 009°10'0 0.0
2014-Jul-26 20:33N 38°42' W 009°10'0 0.0
2014-Jul-26 19:33N 38°42' W 009°10'0 0.1
2014-Jul-26 18:33N 38°42' W 009°10'0 0.1
2014-Jul-26 17:33N 38°42' W 009°10'0 0.4
2014-Jul-26 16:33N 38°42' W 009°10'0 0.4
2014-Jul-26 15:33N 38°42' W 009°10'0 0.0
2014-Jul-26 14:33N 38°42' W 009°10'2 1.6
2014-Jul-26 13:33N 38°42' W 009°08'1 1.4
2014-Jul-26 12:33N 38°43' W 009°07'3 3.3
2014-Jul-26 11:33N 38°42' W 009°10'1 0.7
2014-Jul-26 10:33N 38°42' W 009°10'0 0.1
2014-Jul-26 09:33N 38°42' W 009°10'0 0.0
2014-Jul-26 08:33N 38°42' W 009°10'0 0.0
2014-Jul-26 07:33N 38°42' W 009°10'0 0.0
2014-Jul-26 06:34N 38°42' W 009°10'0 0.0
2014-Jul-26 05:33N 38°42' W 009°10'0 0.0
2014-Jul-26 04:33N 38°42' W 009°10'0 0.0
2014-Jul-26 03:33N 38°42' W 009°10'0 0.0
2014-Jul-26 02:33N 38°42' W 009°10'0 0.0
2014-Jul-26 01:33N 38°42' W 009°10'2 1.9
2014-Jul-26 00:33N 38°41' W 009°08'2 1.5
2014-Jul-25 23:33N 38°41' W 009°06'3 3.3
2014-Jul-25 22:33N 38°42' W 009°10'0 0.0
2014-Jul-25 21:33N 38°42' W 009°10'4 4.0
2014-Jul-25 20:33N 38°41' W 009°14'3 3.0
2014-Jul-25 19:33N 38°42' W 009°11'1 1.0
2014-Jul-25 18:33N 38°42' W 009°10'0 0.0
2014-Jul-25 17:33N 38°42' W 009°10'0 0.0
2014-Jul-25 16:33N 38°42' W 009°10'0 0.0
2014-Jul-25 15:33N 38°42' W 009°10'5 4.8
2014-Jul-25 14:33N 38°41' W 009°04'3 2.7
2014-Jul-25 13:33N 38°41' W 009°07'3 3.1
2014-Jul-25 12:33N 38°41' W 009°11'5 4.5
2014-Jul-25 11:34N 38°43' W 009°06'3 2.5
2014-Jul-25 10:33N 38°42' W 009°09'1 0.5
2014-Jul-25 09:33N 38°42' W 009°10'0 0.0
2014-Jul-25 08:33N 38°42' W 009°10'2 2.2
2014-Jul-25 07:33N 38°41' W 009°12'2 2.2
2014-Jul-25 06:33N 38°42' W 009°10'0 0.0
2014-Jul-25 05:33N 38°42' W 009°10'0 0.0
2014-Jul-25 04:33N 38°42' W 009°10'0 0.0
2014-Jul-25 03:33N 38°42' W 009°10'0 0.0
2014-Jul-25 02:34N 38°42' W 009°10'4 3.8
2014-Jul-25 01:33N 38°41' W 009°14'2 2.4
2014-Jul-25 00:33N 38°42' W 009°11'1 1.4
2014-Jul-24 23:33N 38°42' W 009°10'0 0.0
2014-Jul-24 22:33N 38°42' W 009°10'0 0.0
2014-Jul-24 21:33N 38°42' W 009°10'1 1.2
2014-Jul-24 20:33N 38°41' W 009°08'1 1.2
2014-Jul-24 19:33N 38°42' W 009°10'2 2.0
2014-Jul-24 18:33N 38°41' W 009°12'2 2.0
2014-Jul-24 17:33N 38°42' W 009°10'2 1.5
2014-Jul-24 16:34N 38°42' W 009°08'2 1.2
2014-Jul-24 14:32N 38°42' W 009°11'1 1.0
2014-Jul-24 13:33N 38°41' W 009°11'1 1.2
2014-Jul-24 12:32N 38°42' W 009°10'1 0.6
2014-Jul-24 11:29N 38°42' W 009°10'1 1.5
2014-Jul-24 10:33N 38°42' W 009°08'1 0.7
2014-Jul-24 08:33N 38°42' W 009°10'0 0.0
2014-Jul-24 07:33N 38°42' W 009°10'0 0.0
2014-Jul-24 06:25N 38°42' W 009°10'1 1.3
2014-Jul-24 05:33N 38°42' W 009°11'1 0.9
2014-Jul-24 04:16N 38°42' W 009°10'0 0.0
2014-Jul-24 03:21N 38°42' W 009°10'0 0.0
2014-Jul-24 01:33N 38°42' W 009°10'0 0.0
2014-Jul-24 00:32N 38°42' W 009°10'1 1.3
2014-Jul-23 23:34N 38°41' W 009°08'1 1.5
2014-Jul-23 22:34N 38°41' W 009°07'3 2.7
2014-Jul-23 21:32N 38°42' W 009°10'0 0.0
2014-Jul-23 20:33N 38°42' W 009°10'0 0.0
2014-Jul-23 19:33N 38°42' W 009°10'0 0.0
2014-Jul-23 18:31N 38°42' W 009°10'0 0.0
2014-Jul-23 17:31N 38°42' W 009°10'0 0.3
2014-Jul-23 16:33N 38°42' W 009°10'0 0.4
2014-Jul-23 15:33N 38°42' W 009°10'1 0.6
2014-Jul-23 14:28N 38°42' W 009°10'0 0.0
2014-Jul-23 13:25N 38°42' W 009°10'1 0.6
2014-Jul-23 12:32N 38°42' W 009°09'1 0.3
2014-Jul-23 10:25N 38°42' W 009°10'0 0.0
2014-Jul-23 09:34N 38°42' W 009°10'0 0.0
2014-Jul-23 08:33N 38°42' W 009°10'0 0.0
2014-Jul-23 07:31N 38°42' W 009°10'0 0.0
2014-Jul-23 06:33N 38°42' W 009°10'0 0.0
2014-Jul-23 05:32N 38°42' W 009°10'0 0.0
2014-Jul-23 04:34N 38°42' W 009°10'0 0.0
2014-Jul-23 03:33N 38°42' W 009°10'0 0.0
2014-Jul-23 02:32N 38°42' W 009°10'0 0.0
2014-Jul-23 01:34N 38°42' W 009°10'1 1.2
2014-Jul-23 00:34N 38°41' W 009°08'4 3.5
2014-Jul-22 23:33N 38°41' W 009°04'5 4.6
2014-Jul-22 22:34N 38°42' W 009°10'0 0.0
2014-Jul-22 21:31N 38°42' W 009°10'0 0.0
2014-Jul-22 20:31N 38°42' W 009°10'0 0.0
2014-Jul-22 19:33N 38°42' W 009°10'0 0.0
2014-Jul-22 18:27N 38°42' W 009°10'0 0.0
2014-Jul-22 17:11N 38°42' W 009°10'0 0.0
2014-Jul-22 13:29N 38°42' W 009°10'0 0.0
2014-Jul-22 12:33N 38°42' W 009°10'0 0.0
2014-Jul-22 11:33N 38°42' W 009°10'0 0.0
2014-Jul-22 10:28N 38°42' W 009°10'0 0.0
2014-Jul-22 09:33N 38°42' W 009°10'0 0.0
2014-Jul-22 08:33N 38°42' W 009°10'0 0.0
2014-Jul-22 07:33N 38°42' W 009°10'0 0.4
2014-Jul-22 06:33N 38°42' W 009°10'0 0.4
2014-Jul-22 05:33N 38°42' W 009°10'0 0.0
2014-Jul-22 04:33N 38°42' W 009°10'0 0.0
2014-Jul-22 03:33N 38°42' W 009°10'0 0.0
2014-Jul-22 02:34N 38°42' W 009°10'0 0.0
2014-Jul-22 01:34N 38°42' W 009°10'0 0.0
2014-Jul-22 00:33N 38°42' W 009°10'0 0.0
2014-Jul-21 23:33N 38°42' W 009°10'0 0.0
2014-Jul-21 22:33N 38°42' W 009°10'0 0.0
2014-Jul-21 21:32N 38°42' W 009°10'3 3.1
2014-Jul-21 20:33N 38°41' W 009°13'1 3.0
2014-Jul-21 20:15N 38°41' W 009°14'0 0.1
2014-Jul-21 19:33N 38°41' W 009°14'0 0.1
2014-Jul-21 17:31N 38°41' W 009°14'0 0.2
2014-Jul-21 16:32N 38°41' W 009°14'3 2.5
2014-Jul-21 15:14N 38°42' W 009°10'1 0.9
2014-Jul-21 14:32N 38°42' W 009°10'0 0.0
2014-Jul-21 13:33N 38°42' W 009°10'0 0.0
2014-Jul-21 12:33N 38°42' W 009°10'0 0.0
2014-Jul-21 11:34N 38°42' W 009°10'3 3.3
2014-Jul-21 10:33N 38°41' W 009°06'0 0.1
2014-Jul-21 09:34N 38°41' W 009°06'3 2.9
2014-Jul-21 08:29N 38°42' W 009°10'0 0.4
2014-Jul-21 07:34N 38°42' W 009°10'0 0.1
2014-Jul-21 06:34N 38°42' W 009°10'0 0.4
2014-Jul-21 05:33N 38°42' W 009°10'0 0.0
2014-Jul-21 04:34N 38°42' W 009°10'0 0.0
2014-Jul-21 03:33N 38°42' W 009°10'0 0.0
2014-Jul-21 02:33N 38°42' W 009°10'0 0.0
2014-Jul-21 01:33N 38°42' W 009°10'0 0.0
2014-Jul-21 00:33N 38°42' W 009°10'0 0.1
2014-Jul-20 23:32N 38°42' W 009°09'0 0.3
2014-Jul-20 22:34N 38°42' W 009°09'0 0.2
2014-Jul-20 21:32N 38°42' W 009°10'0 0.0
2014-Jul-20 20:33N 38°42' W 009°10'0 0.0
2014-Jul-20 19:33N 38°42' W 009°10'0 0.0
2014-Jul-20 18:34N 38°42' W 009°10'0 0.0
2014-Jul-20 17:33N 38°42' W 009°10'0 0.0
2014-Jul-20 16:32N 38°42' W 009°10'0 0.0
2014-Jul-20 15:30N 38°42' W 009°10'0 0.0
2014-Jul-20 14:33N 38°42' W 009°10'0 0.0
2014-Jul-20 13:34N 38°42' W 009°10'0 0.0
2014-Jul-20 12:33N 38°42' W 009°10'0 0.0
2014-Jul-20 11:34N 38°42' W 009°10'0 0.3
2014-Jul-20 10:34N 38°42' W 009°09'2 1.6
2014-Jul-20 09:33N 38°41' W 009°11'1 0.5
2014-Jul-20 08:33N 38°41' W 009°11'2 1.9
2014-Jul-20 07:34N 38°42' W 009°10'0 0.0
2014-Jul-20 06:29N 38°42' W 009°10'0 0.0
2014-Jul-20 05:33N 38°42' W 009°10'0 0.0
2014-Jul-20 04:28N 38°42' W 009°10'0 0.0
2014-Jul-20 03:33N 38°42' W 009°10'0 0.0
2014-Jul-20 02:34N 38°42' W 009°10'0 0.0
2014-Jul-20 01:32N 38°42' W 009°10'0 0.0
2014-Jul-20 00:34N 38°42' W 009°10'0 0.0
2014-Jul-19 23:33N 38°42' W 009°10'0 0.0
2014-Jul-19 22:33N 38°42' W 009°10'0 0.0
2014-Jul-19 21:33N 38°42' W 009°10'0 0.0
2014-Jul-19 20:33N 38°42' W 009°10'0 0.0
2014-Jul-19 19:33N 38°42' W 009°10'0 0.0
2014-Jul-19 18:33N 38°42' W 009°10'  

Dump ship's entire track history